sensor_id;sensor_type;location;lat;lon;timestamp;P1;durP1;ratioP1;P2;durP2;ratioP2
48199;SDS011;33990;44.602;10.976;2023-04-24T00:00:16;3.28;;;1.48;;
48199;SDS011;33990;44.602;10.976;2023-04-24T00:02:44;3.80;;;1.50;;
48199;SDS011;33990;44.602;10.976;2023-04-24T00:05:14;2.92;;;1.33;;
48199;SDS011;33990;44.602;10.976;2023-04-24T00:07:42;2.85;;;1.60;;
48199;SDS011;33990;44.602;10.976;2023-04-24T00:10:11;4.47;;;2.55;;
48199;SDS011;33990;44.602;10.976;2023-04-24T00:12:39;3.00;;;1.70;;
48199;SDS011;33990;44.602;10.976;2023-04-24T00:15:06;3.63;;;1.77;;
48199;SDS011;33990;44.602;10.976;2023-04-24T00:17:34;3.53;;;1.70;;
48199;SDS011;33990;44.602;10.976;2023-04-24T00:20:02;3.00;;;1.80;;
48199;SDS011;33990;44.602;10.976;2023-04-24T00:22:31;3.22;;;1.40;;
48199;SDS011;33990;44.602;10.976;2023-04-24T00:24:58;3.70;;;1.77;;
48199;SDS011;33990;44.602;10.976;2023-04-24T00:27:26;3.75;;;1.70;;
48199;SDS011;33990;44.602;10.976;2023-04-24T00:29:53;5.07;;;1.63;;
48199;SDS011;33990;44.602;10.976;2023-04-24T00:32:20;3.15;;;1.83;;
48199;SDS011;33990;44.602;10.976;2023-04-24T00:34:48;3.95;;;1.70;;
48199;SDS011;33990;44.602;10.976;2023-04-24T00:37:15;1.98;;;1.10;;
48199;SDS011;33990;44.602;10.976;2023-04-24T00:39:44;5.38;;;1.73;;
48199;SDS011;33990;44.602;10.976;2023-04-24T00:42:12;3.20;;;1.65;;
48199;SDS011;33990;44.602;10.976;2023-04-24T00:44:39;4.28;;;1.90;;
48199;SDS011;33990;44.602;10.976;2023-04-24T00:47:07;3.20;;;1.90;;
48199;SDS011;33990;44.602;10.976;2023-04-24T00:49:35;3.72;;;1.75;;
48199;SDS011;33990;44.602;10.976;2023-04-24T00:52:02;3.13;;;1.63;;
48199;SDS011;33990;44.602;10.976;2023-04-24T00:54:34;2.83;;;1.43;;
48199;SDS011;33990;44.602;10.976;2023-04-24T00:57:03;2.70;;;1.70;;
48199;SDS011;33990;44.602;10.976;2023-04-24T00:59:30;3.83;;;1.40;;
48199;SDS011;33990;44.602;10.976;2023-04-24T01:01:58;2.63;;;1.40;;
48199;SDS011;33990;44.602;10.976;2023-04-24T01:04:26;3.35;;;1.83;;
48199;SDS011;33990;44.602;10.976;2023-04-24T01:06:54;4.05;;;1.55;;
48199;SDS011;33990;44.602;10.976;2023-04-24T01:09:23;2.65;;;1.27;;
48199;SDS011;33990;44.602;10.976;2023-04-24T01:11:51;3.53;;;1.63;;
48199;SDS011;33990;44.602;10.976;2023-04-24T01:14:18;3.75;;;1.50;;
48199;SDS011;33990;44.602;10.976;2023-04-24T01:16:49;5.43;;;1.73;;
48199;SDS011;33990;44.602;10.976;2023-04-24T01:19:16;4.78;;;1.80;;
48199;SDS011;33990;44.602;10.976;2023-04-24T01:21:45;7.25;;;1.90;;
48199;SDS011;33990;44.602;10.976;2023-04-24T01:24:17;4.38;;;1.80;;
48199;SDS011;33990;44.602;10.976;2023-04-24T01:26:46;3.13;;;1.52;;
48199;SDS011;33990;44.602;10.976;2023-04-24T01:29:14;5.20;;;1.70;;
48199;SDS011;33990;44.602;10.976;2023-04-24T01:31:42;5.65;;;2.03;;
48199;SDS011;33990;44.602;10.976;2023-04-24T01:34:10;3.55;;;1.67;;
48199;SDS011;33990;44.602;10.976;2023-04-24T01:36:37;6.25;;;2.00;;
48199;SDS011;33990;44.602;10.976;2023-04-24T01:39:06;4.10;;;1.50;;
48199;SDS011;33990;44.602;10.976;2023-04-24T01:41:33;5.28;;;1.98;;
48199;SDS011;33990;44.602;10.976;2023-04-24T01:44:01;2.85;;;1.77;;
48199;SDS011;33990;44.602;10.976;2023-04-24T01:46:29;3.17;;;1.80;;
48199;SDS011;33990;44.602;10.976;2023-04-24T01:48:58;3.88;;;1.63;;
48199;SDS011;33990;44.602;10.976;2023-04-24T01:51:26;3.13;;;1.80;;
48199;SDS011;33990;44.602;10.976;2023-04-24T01:53:56;2.72;;;1.38;;
48199;SDS011;33990;44.602;10.976;2023-04-24T01:56:23;3.78;;;1.77;;
48199;SDS011;33990;44.602;10.976;2023-04-24T01:58:52;4.53;;;1.80;;
48199;SDS011;33990;44.602;10.976;2023-04-24T02:01:22;5.18;;;2.08;;
48199;SDS011;33990;44.602;10.976;2023-04-24T02:03:51;3.03;;;1.90;;
48199;SDS011;33990;44.602;10.976;2023-04-24T02:06:18;2.58;;;1.60;;
48199;SDS011;33990;44.602;10.976;2023-04-24T02:08:46;4.25;;;1.50;;
48199;SDS011;33990;44.602;10.976;2023-04-24T02:11:13;2.50;;;1.45;;
48199;SDS011;33990;44.602;10.976;2023-04-24T02:13:41;3.13;;;1.60;;
48199;SDS011;33990;44.602;10.976;2023-04-24T02:16:08;4.50;;;2.17;;
48199;SDS011;33990;44.602;10.976;2023-04-24T02:18:35;3.22;;;2.17;;
48199;SDS011;33990;44.602;10.976;2023-04-24T02:21:03;2.53;;;1.50;;
48199;SDS011;33990;44.602;10.976;2023-04-24T02:23:30;2.53;;;1.63;;
48199;SDS011;33990;44.602;10.976;2023-04-24T02:25:57;3.10;;;1.60;;
48199;SDS011;33990;44.602;10.976;2023-04-24T02:28:25;4.53;;;1.67;;
48199;SDS011;33990;44.602;10.976;2023-04-24T02:30:52;4.80;;;1.52;;
48199;SDS011;33990;44.602;10.976;2023-04-24T02:33:22;3.63;;;2.13;;
48199;SDS011;33990;44.602;10.976;2023-04-24T02:35:49;4.47;;;1.67;;
48199;SDS011;33990;44.602;10.976;2023-04-24T02:38:16;3.25;;;1.60;;
48199;SDS011;33990;44.602;10.976;2023-04-24T02:40:43;4.70;;;1.88;;
48199;SDS011;33990;44.602;10.976;2023-04-24T02:43:11;3.00;;;1.60;;
48199;SDS011;33990;44.602;10.976;2023-04-24T02:45:38;4.15;;;1.77;;
48199;SDS011;33990;44.602;10.976;2023-04-24T02:48:06;3.30;;;1.85;;
48199;SDS011;33990;44.602;10.976;2023-04-24T02:50:33;4.32;;;2.00;;
48199;SDS011;33990;44.602;10.976;2023-04-24T02:53:01;3.40;;;1.70;;
48199;SDS011;33990;44.602;10.976;2023-04-24T02:55:29;3.80;;;1.98;;
48199;SDS011;33990;44.602;10.976;2023-04-24T02:57:56;3.70;;;1.70;;
48199;SDS011;33990;44.602;10.976;2023-04-24T03:00:23;3.22;;;1.58;;
48199;SDS011;33990;44.602;10.976;2023-04-24T03:02:51;4.22;;;1.65;;
48199;SDS011;33990;44.602;10.976;2023-04-24T03:05:18;2.53;;;1.58;;
48199;SDS011;33990;44.602;10.976;2023-04-24T03:07:46;2.72;;;1.30;;
48199;SDS011;33990;44.602;10.976;2023-04-24T03:10:13;3.47;;;1.70;;
48199;SDS011;33990;44.602;10.976;2023-04-24T03:12:41;4.90;;;1.80;;
48199;SDS011;33990;44.602;10.976;2023-04-24T03:15:08;5.25;;;2.15;;
48199;SDS011;33990;44.602;10.976;2023-04-24T03:17:36;3.95;;;1.55;;
48199;SDS011;33990;44.602;10.976;2023-04-24T03:20:04;6.93;;;1.73;;
48199;SDS011;33990;44.602;10.976;2023-04-24T03:22:35;3.25;;;1.60;;
48199;SDS011;33990;44.602;10.976;2023-04-24T03:25:05;4.07;;;1.77;;
48199;SDS011;33990;44.602;10.976;2023-04-24T03:27:35;2.88;;;1.58;;
48199;SDS011;33990;44.602;10.976;2023-04-24T03:30:07;3.50;;;2.42;;
48199;SDS011;33990;44.602;10.976;2023-04-24T03:32:50;3.72;;;1.77;;
48199;SDS011;33990;44.602;10.976;2023-04-24T03:35:22;5.32;;;1.83;;
48199;SDS011;33990;44.602;10.976;2023-04-24T03:37:51;3.92;;;1.42;;
48199;SDS011;33990;44.602;10.976;2023-04-24T03:40:39;3.28;;;1.60;;
48199;SDS011;33990;44.602;10.976;2023-04-24T03:43:18;3.40;;;2.00;;
48199;SDS011;33990;44.602;10.976;2023-04-24T03:45:46;3.33;;;1.83;;
48199;SDS011;33990;44.602;10.976;2023-04-24T03:48:14;2.80;;;1.73;;
48199;SDS011;33990;44.602;10.976;2023-04-24T03:50:42;2.47;;;1.65;;
48199;SDS011;33990;44.602;10.976;2023-04-24T03:53:11;4.63;;;1.63;;
48199;SDS011;33990;44.602;10.976;2023-04-24T03:55:40;5.53;;;2.38;;
48199;SDS011;33990;44.602;10.976;2023-04-24T03:58:09;2.50;;;1.67;;
48199;SDS011;33990;44.602;10.976;2023-04-24T04:00:37;4.43;;;1.98;;
48199;SDS011;33990;44.602;10.976;2023-04-24T04:03:23;2.95;;;1.83;;
48199;SDS011;33990;44.602;10.976;2023-04-24T04:05:50;4.15;;;1.73;;
48199;SDS011;33990;44.602;10.976;2023-04-24T04:08:18;3.03;;;2.00;;
48199;SDS011;33990;44.602;10.976;2023-04-24T04:10:45;4.22;;;1.73;;
48199;SDS011;33990;44.602;10.976;2023-04-24T04:13:13;6.35;;;2.35;;
48199;SDS011;33990;44.602;10.976;2023-04-24T04:15:40;4.43;;;2.13;;
48199;SDS011;33990;44.602;10.976;2023-04-24T04:18:08;2.58;;;1.60;;
48199;SDS011;33990;44.602;10.976;2023-04-24T04:20:35;3.63;;;2.13;;
48199;SDS011;33990;44.602;10.976;2023-04-24T04:23:03;3.45;;;2.05;;
48199;SDS011;33990;44.602;10.976;2023-04-24T04:25:44;4.63;;;2.28;;
48199;SDS011;33990;44.602;10.976;2023-04-24T04:28:11;3.58;;;2.10;;
48199;SDS011;33990;44.602;10.976;2023-04-24T04:30:39;3.15;;;1.92;;
48199;SDS011;33990;44.602;10.976;2023-04-24T04:33:07;4.93;;;2.33;;
48199;SDS011;33990;44.602;10.976;2023-04-24T04:35:35;5.03;;;2.38;;
48199;SDS011;33990;44.602;10.976;2023-04-24T04:38:03;5.82;;;2.50;;
48199;SDS011;33990;44.602;10.976;2023-04-24T04:40:54;3.90;;;2.80;;
48199;SDS011;33990;44.602;10.976;2023-04-24T04:43:24;5.13;;;2.92;;
48199;SDS011;33990;44.602;10.976;2023-04-24T04:45:53;4.80;;;2.72;;
48199;SDS011;33990;44.602;10.976;2023-04-24T04:48:41;4.05;;;2.70;;
48199;SDS011;33990;44.602;10.976;2023-04-24T04:51:10;4.05;;;2.70;;
48199;SDS011;33990;44.602;10.976;2023-04-24T04:53:37;5.47;;;2.83;;
48199;SDS011;33990;44.602;10.976;2023-04-24T04:56:05;4.75;;;3.13;;
48199;SDS011;33990;44.602;10.976;2023-04-24T04:58:40;4.65;;;3.15;;
48199;SDS011;33990;44.602;10.976;2023-04-24T05:01:11;5.05;;;2.72;;
48199;SDS011;33990;44.602;10.976;2023-04-24T05:03:42;3.80;;;2.65;;
48199;SDS011;33990;44.602;10.976;2023-04-24T05:06:12;3.40;;;2.90;;
48199;SDS011;33990;44.602;10.976;2023-04-24T05:08:43;5.75;;;3.05;;
48199;SDS011;33990;44.602;10.976;2023-04-24T05:11:28;3.30;;;2.40;;
48199;SDS011;33990;44.602;10.976;2023-04-24T05:13:57;4.82;;;2.70;;
48199;SDS011;33990;44.602;10.976;2023-04-24T05:16:33;4.78;;;2.92;;
48199;SDS011;33990;44.602;10.976;2023-04-24T05:19:00;3.95;;;2.78;;
48199;SDS011;33990;44.602;10.976;2023-04-24T05:21:33;3.45;;;2.38;;
48199;SDS011;33990;44.602;10.976;2023-04-24T05:24:01;3.05;;;2.28;;
48199;SDS011;33990;44.602;10.976;2023-04-24T05:26:43;4.28;;;2.65;;
48199;SDS011;33990;44.602;10.976;2023-04-24T05:29:12;4.60;;;2.58;;
48199;SDS011;33990;44.602;10.976;2023-04-24T05:31:39;4.03;;;2.83;;
48199;SDS011;33990;44.602;10.976;2023-04-24T05:34:07;4.20;;;3.35;;
48199;SDS011;33990;44.602;10.976;2023-04-24T05:36:38;4.93;;;3.47;;
48199;SDS011;33990;44.602;10.976;2023-04-24T05:39:06;3.90;;;3.20;;
48199;SDS011;33990;44.602;10.976;2023-04-24T05:41:34;4.95;;;3.13;;
48199;SDS011;33990;44.602;10.976;2023-04-24T05:44:02;4.95;;;3.13;;
48199;SDS011;33990;44.602;10.976;2023-04-24T05:46:29;5.53;;;3.60;;
48199;SDS011;33990;44.602;10.976;2023-04-24T05:48:56;3.70;;;2.95;;
48199;SDS011;33990;44.602;10.976;2023-04-24T05:51:24;4.18;;;3.10;;
48199;SDS011;33990;44.602;10.976;2023-04-24T05:53:51;4.78;;;3.08;;
48199;SDS011;33990;44.602;10.976;2023-04-24T05:56:19;4.68;;;3.28;;
48199;SDS011;33990;44.602;10.976;2023-04-24T05:58:49;5.32;;;3.42;;
48199;SDS011;33990;44.602;10.976;2023-04-24T06:01:16;4.88;;;2.97;;
48199;SDS011;33990;44.602;10.976;2023-04-24T06:03:50;5.07;;;3.20;;
48199;SDS011;33990;44.602;10.976;2023-04-24T06:06:18;4.15;;;3.20;;
48199;SDS011;33990;44.602;10.976;2023-04-24T06:08:46;4.50;;;3.22;;
48199;SDS011;33990;44.602;10.976;2023-04-24T06:11:13;5.13;;;3.55;;
48199;SDS011;33990;44.602;10.976;2023-04-24T06:13:41;4.20;;;2.60;;
48199;SDS011;33990;44.602;10.976;2023-04-24T06:16:27;5.45;;;3.35;;
48199;SDS011;33990;44.602;10.976;2023-04-24T06:19:01;3.80;;;2.92;;
48199;SDS011;33990;44.602;10.976;2023-04-24T06:21:29;4.28;;;2.95;;
48199;SDS011;33990;44.602;10.976;2023-04-24T06:23:56;5.63;;;3.30;;
48199;SDS011;33990;44.602;10.976;2023-04-24T06:26:25;3.92;;;2.75;;
48199;SDS011;33990;44.602;10.976;2023-04-24T06:28:53;5.30;;;3.67;;
48199;SDS011;33990;44.602;10.976;2023-04-24T06:31:21;3.83;;;3.00;;
48199;SDS011;33990;44.602;10.976;2023-04-24T06:33:49;5.00;;;3.15;;
48199;SDS011;33990;44.602;10.976;2023-04-24T06:36:16;5.25;;;3.28;;
48199;SDS011;33990;44.602;10.976;2023-04-24T06:38:44;5.38;;;3.35;;
48199;SDS011;33990;44.602;10.976;2023-04-24T06:41:12;5.53;;;4.68;;
48199;SDS011;33990;44.602;10.976;2023-04-24T06:43:39;7.47;;;6.70;;
48199;SDS011;33990;44.602;10.976;2023-04-24T06:46:07;9.88;;;7.25;;
48199;SDS011;33990;44.602;10.976;2023-04-24T06:48:34;12.18;;;8.75;;
48199;SDS011;33990;44.602;10.976;2023-04-24T06:51:01;10.98;;;8.65;;
48199;SDS011;33990;44.602;10.976;2023-04-24T06:53:29;10.07;;;7.50;;
48199;SDS011;33990;44.602;10.976;2023-04-24T06:55:56;8.15;;;7.35;;
48199;SDS011;33990;44.602;10.976;2023-04-24T06:58:24;9.75;;;7.68;;
48199;SDS011;33990;44.602;10.976;2023-04-24T07:00:52;7.72;;;6.43;;
48199;SDS011;33990;44.602;10.976;2023-04-24T07:03:19;8.32;;;6.05;;
48199;SDS011;33990;44.602;10.976;2023-04-24T07:05:47;10.70;;;7.70;;
48199;SDS011;33990;44.602;10.976;2023-04-24T07:08:16;11.30;;;7.53;;
48199;SDS011;33990;44.602;10.976;2023-04-24T07:10:44;11.88;;;8.57;;
48199;SDS011;33990;44.602;10.976;2023-04-24T07:13:12;11.35;;;7.97;;
48199;SDS011;33990;44.602;10.976;2023-04-24T07:15:40;12.30;;;8.48;;
48199;SDS011;33990;44.602;10.976;2023-04-24T07:18:08;9.02;;;7.60;;
48199;SDS011;33990;44.602;10.976;2023-04-24T07:20:36;10.20;;;7.85;;
48199;SDS011;33990;44.602;10.976;2023-04-24T07:23:03;11.85;;;8.40;;
48199;SDS011;33990;44.602;10.976;2023-04-24T07:25:30;15.23;;;9.20;;
48199;SDS011;33990;44.602;10.976;2023-04-24T07:27:59;13.48;;;8.93;;
48199;SDS011;33990;44.602;10.976;2023-04-24T07:30:26;12.90;;;8.82;;
48199;SDS011;33990;44.602;10.976;2023-04-24T07:32:56;12.25;;;8.68;;
48199;SDS011;33990;44.602;10.976;2023-04-24T07:35:23;10.00;;;8.13;;
48199;SDS011;33990;44.602;10.976;2023-04-24T07:37:52;12.02;;;9.48;;
48199;SDS011;33990;44.602;10.976;2023-04-24T07:40:20;10.57;;;9.02;;
48199;SDS011;33990;44.602;10.976;2023-04-24T07:42:48;10.35;;;8.70;;
48199;SDS011;33990;44.602;10.976;2023-04-24T07:45:16;10.80;;;8.18;;
48199;SDS011;33990;44.602;10.976;2023-04-24T07:47:43;9.98;;;8.95;;
48199;SDS011;33990;44.602;10.976;2023-04-24T07:50:12;11.55;;;9.35;;
48199;SDS011;33990;44.602;10.976;2023-04-24T07:52:40;10.73;;;8.00;;
48199;SDS011;33990;44.602;10.976;2023-04-24T07:55:08;9.20;;;7.13;;
48199;SDS011;33990;44.602;10.976;2023-04-24T07:57:35;15.20;;;8.18;;
48199;SDS011;33990;44.602;10.976;2023-04-24T08:00:05;15.07;;;9.25;;
48199;SDS011;33990;44.602;10.976;2023-04-24T08:02:37;11.45;;;9.38;;
48199;SDS011;33990;44.602;10.976;2023-04-24T08:05:05;10.63;;;8.65;;
48199;SDS011;33990;44.602;10.976;2023-04-24T08:07:33;9.18;;;6.97;;
48199;SDS011;33990;44.602;10.976;2023-04-24T08:10:02;10.02;;;7.35;;
48199;SDS011;33990;44.602;10.976;2023-04-24T08:12:29;8.90;;;6.53;;
48199;SDS011;33990;44.602;10.976;2023-04-24T08:14:57;8.20;;;5.53;;
48199;SDS011;33990;44.602;10.976;2023-04-24T08:17:24;10.45;;;5.85;;
48199;SDS011;33990;44.602;10.976;2023-04-24T08:19:52;9.57;;;7.05;;
48199;SDS011;33990;44.602;10.976;2023-04-24T08:22:26;5.50;;;4.80;;
48199;SDS011;33990;44.602;10.976;2023-04-24T08:24:53;9.32;;;6.20;;
48199;SDS011;33990;44.602;10.976;2023-04-24T08:27:21;6.78;;;5.50;;
48199;SDS011;33990;44.602;10.976;2023-04-24T08:29:49;7.38;;;6.03;;
48199;SDS011;33990;44.602;10.976;2023-04-24T08:32:16;6.97;;;5.25;;
48199;SDS011;33990;44.602;10.976;2023-04-24T08:34:44;6.60;;;5.20;;
48199;SDS011;33990;44.602;10.976;2023-04-24T08:37:15;7.22;;;5.18;;
48199;SDS011;33990;44.602;10.976;2023-04-24T08:39:42;8.25;;;4.82;;
48199;SDS011;33990;44.602;10.976;2023-04-24T08:42:10;8.27;;;4.93;;
48199;SDS011;33990;44.602;10.976;2023-04-24T08:44:38;5.45;;;4.28;;
48199;SDS011;33990;44.602;10.976;2023-04-24T08:47:06;6.50;;;3.55;;
48199;SDS011;33990;44.602;10.976;2023-04-24T08:49:35;5.60;;;3.17;;
48199;SDS011;33990;44.602;10.976;2023-04-24T08:52:04;5.18;;;3.00;;
48199;SDS011;33990;44.602;10.976;2023-04-24T08:54:35;5.05;;;2.80;;
48199;SDS011;33990;44.602;10.976;2023-04-24T08:57:03;4.57;;;2.83;;
48199;SDS011;33990;44.602;10.976;2023-04-24T08:59:31;3.97;;;2.55;;
48199;SDS011;33990;44.602;10.976;2023-04-24T09:01:59;5.97;;;2.85;;
48199;SDS011;33990;44.602;10.976;2023-04-24T09:04:27;3.72;;;2.97;;
48199;SDS011;33990;44.602;10.976;2023-04-24T09:06:57;5.07;;;3.20;;
48199;SDS011;33990;44.602;10.976;2023-04-24T09:09:25;4.05;;;2.45;;
48199;SDS011;33990;44.602;10.976;2023-04-24T09:11:53;4.55;;;2.55;;
48199;SDS011;33990;44.602;10.976;2023-04-24T09:14:24;4.28;;;2.78;;
48199;SDS011;33990;44.602;10.976;2023-04-24T09:16:51;4.88;;;3.10;;
48199;SDS011;33990;44.602;10.976;2023-04-24T09:19:19;4.50;;;2.53;;
48199;SDS011;33990;44.602;10.976;2023-04-24T09:21:48;4.28;;;2.60;;
48199;SDS011;33990;44.602;10.976;2023-04-24T09:24:16;4.15;;;2.85;;
48199;SDS011;33990;44.602;10.976;2023-04-24T09:26:45;4.97;;;2.80;;
48199;SDS011;33990;44.602;10.976;2023-04-24T09:29:16;5.50;;;3.28;;
48199;SDS011;33990;44.602;10.976;2023-04-24T09:31:44;5.63;;;3.15;;
48199;SDS011;33990;44.602;10.976;2023-04-24T09:34:12;4.80;;;3.40;;
48199;SDS011;33990;44.602;10.976;2023-04-24T09:36:42;5.50;;;3.20;;
48199;SDS011;33990;44.602;10.976;2023-04-24T09:39:14;4.53;;;3.35;;
48199;SDS011;33990;44.602;10.976;2023-04-24T09:41:52;5.22;;;3.65;;
48199;SDS011;33990;44.602;10.976;2023-04-24T09:44:24;5.40;;;3.60;;
48199;SDS011;33990;44.602;10.976;2023-04-24T09:46:57;6.25;;;3.85;;
48199;SDS011;33990;44.602;10.976;2023-04-24T09:49:29;6.60;;;3.05;;
48199;SDS011;33990;44.602;10.976;2023-04-24T09:52:06;4.40;;;3.63;;
48199;SDS011;33990;44.602;10.976;2023-04-24T09:54:35;5.07;;;2.95;;
48199;SDS011;33990;44.602;10.976;2023-04-24T09:57:04;6.65;;;4.35;;
48199;SDS011;33990;44.602;10.976;2023-04-24T09:59:31;6.70;;;3.15;;
48199;SDS011;33990;44.602;10.976;2023-04-24T10:02:01;4.53;;;3.47;;
48199;SDS011;33990;44.602;10.976;2023-04-24T10:04:29;4.78;;;3.20;;
48199;SDS011;33990;44.602;10.976;2023-04-24T10:06:56;4.15;;;3.05;;
48199;SDS011;33990;44.602;10.976;2023-04-24T10:09:26;5.13;;;2.92;;
48199;SDS011;33990;44.602;10.976;2023-04-24T10:11:54;4.70;;;3.35;;
48199;SDS011;33990;44.602;10.976;2023-04-24T10:14:25;4.75;;;3.47;;
48199;SDS011;33990;44.602;10.976;2023-04-24T10:16:53;5.47;;;3.08;;
48199;SDS011;33990;44.602;10.976;2023-04-24T10:19:22;3.38;;;2.53;;
48199;SDS011;33990;44.602;10.976;2023-04-24T10:21:52;5.10;;;2.88;;
48199;SDS011;33990;44.602;10.976;2023-04-24T10:24:21;6.18;;;3.13;;
48199;SDS011;33990;44.602;10.976;2023-04-24T10:26:49;4.90;;;2.72;;
48199;SDS011;33990;44.602;10.976;2023-04-24T10:29:17;5.32;;;3.08;;
48199;SDS011;33990;44.602;10.976;2023-04-24T10:31:46;4.97;;;3.05;;
48199;SDS011;33990;44.602;10.976;2023-04-24T10:34:14;4.10;;;3.38;;
48199;SDS011;33990;44.602;10.976;2023-04-24T10:36:48;4.80;;;3.10;;
48199;SDS011;33990;44.602;10.976;2023-04-24T10:39:21;3.78;;;2.72;;
48199;SDS011;33990;44.602;10.976;2023-04-24T10:41:54;6.20;;;3.37;;
48199;SDS011;33990;44.602;10.976;2023-04-24T10:44:24;4.10;;;2.60;;
48199;SDS011;33990;44.602;10.976;2023-04-24T10:46:52;4.93;;;2.30;;
48199;SDS011;33990;44.602;10.976;2023-04-24T10:49:28;4.95;;;2.65;;
48199;SDS011;33990;44.602;10.976;2023-04-24T10:52:03;3.75;;;2.70;;
48199;SDS011;33990;44.602;10.976;2023-04-24T11:00:09;4.07;;;2.78;;
48199;SDS011;33990;44.602;10.976;2023-04-24T11:02:40;4.10;;;2.50;;
48199;SDS011;33990;44.602;10.976;2023-04-24T11:05:16;4.50;;;2.33;;
48199;SDS011;33990;44.602;10.976;2023-04-24T11:10:38;3.15;;;2.30;;
48199;SDS011;33990;44.602;10.976;2023-04-24T11:13:06;3.70;;;2.50;;
48199;SDS011;33990;44.602;10.976;2023-04-24T11:15:36;3.95;;;2.50;;
48199;SDS011;33990;44.602;10.976;2023-04-24T11:18:04;3.58;;;2.38;;
48199;SDS011;33990;44.602;10.976;2023-04-24T11:20:31;4.38;;;2.30;;
48199;SDS011;33990;44.602;10.976;2023-04-24T11:23:03;5.90;;;3.28;;
48199;SDS011;33990;44.602;10.976;2023-04-24T11:25:31;7.57;;;2.75;;
48199;SDS011;33990;44.602;10.976;2023-04-24T11:28:03;4.35;;;2.65;;
48199;SDS011;33990;44.602;10.976;2023-04-24T11:30:32;5.93;;;2.40;;
48199;SDS011;33990;44.602;10.976;2023-04-24T11:33:03;4.10;;;2.17;;
48199;SDS011;33990;44.602;10.976;2023-04-24T11:35:36;3.28;;;2.30;;
48199;SDS011;33990;44.602;10.976;2023-04-24T11:38:06;3.67;;;2.13;;
48199;SDS011;33990;44.602;10.976;2023-04-24T11:40:51;5.93;;;2.15;;
48199;SDS011;33990;44.602;10.976;2023-04-24T11:43:19;3.72;;;2.00;;
48199;SDS011;33990;44.602;10.976;2023-04-24T11:45:48;4.00;;;1.83;;
48199;SDS011;33990;44.602;10.976;2023-04-24T11:48:19;5.88;;;2.42;;
48199;SDS011;33990;44.602;10.976;2023-04-24T11:50:50;4.75;;;2.22;;
48199;SDS011;33990;44.602;10.976;2023-04-24T11:53:20;5.13;;;1.95;;
48199;SDS011;33990;44.602;10.976;2023-04-24T11:55:48;4.35;;;2.28;;
48199;SDS011;33990;44.602;10.976;2023-04-24T11:58:16;4.15;;;1.92;;
48199;SDS011;33990;44.602;10.976;2023-04-24T12:00:55;5.13;;;2.40;;
48199;SDS011;33990;44.602;10.976;2023-04-24T12:03:23;2.75;;;1.80;;
48199;SDS011;33990;44.602;10.976;2023-04-24T12:05:51;4.82;;;2.10;;
48199;SDS011;33990;44.602;10.976;2023-04-24T12:08:28;4.20;;;1.85;;
48199;SDS011;33990;44.602;10.976;2023-04-24T12:10:55;8.10;;;2.20;;
48199;SDS011;33990;44.602;10.976;2023-04-24T12:13:23;3.88;;;2.08;;
48199;SDS011;33990;44.602;10.976;2023-04-24T12:15:52;4.93;;;1.80;;
48199;SDS011;33990;44.602;10.976;2023-04-24T12:18:23;4.72;;;2.08;;
48199;SDS011;33990;44.602;10.976;2023-04-24T12:20:51;7.68;;;2.15;;
48199;SDS011;33990;44.602;10.976;2023-04-24T12:23:37;4.68;;;2.13;;
48199;SDS011;33990;44.602;10.976;2023-04-24T12:26:04;3.00;;;1.60;;
48199;SDS011;33990;44.602;10.976;2023-04-24T12:28:38;4.35;;;1.80;;
48199;SDS011;33990;44.602;10.976;2023-04-24T12:31:06;3.97;;;2.03;;
48199;SDS011;33990;44.602;10.976;2023-04-24T12:33:34;5.07;;;1.80;;
48199;SDS011;33990;44.602;10.976;2023-04-24T12:36:02;5.40;;;1.65;;
48199;SDS011;33990;44.602;10.976;2023-04-24T12:38:30;4.15;;;1.90;;
48199;SDS011;33990;44.602;10.976;2023-04-24T12:41:04;3.70;;;1.80;;
48199;SDS011;33990;44.602;10.976;2023-04-24T12:43:36;3.42;;;1.48;;
48199;SDS011;33990;44.602;10.976;2023-04-24T12:46:04;4.05;;;1.80;;
48199;SDS011;33990;44.602;10.976;2023-04-24T12:48:35;3.13;;;1.70;;
48199;SDS011;33990;44.602;10.976;2023-04-24T12:51:03;3.08;;;1.70;;
48199;SDS011;33990;44.602;10.976;2023-04-24T12:53:31;2.50;;;1.58;;
48199;SDS011;33990;44.602;10.976;2023-04-24T12:55:58;4.35;;;1.80;;
48199;SDS011;33990;44.602;10.976;2023-04-24T12:58:26;5.68;;;2.05;;
48199;SDS011;33990;44.602;10.976;2023-04-24T13:00:53;3.55;;;1.35;;
48199;SDS011;33990;44.602;10.976;2023-04-24T13:03:21;4.07;;;2.10;;
48199;SDS011;33990;44.602;10.976;2023-04-24T13:05:49;3.28;;;1.65;;
48199;SDS011;33990;44.602;10.976;2023-04-24T13:08:17;3.83;;;2.22;;
48199;SDS011;33990;44.602;10.976;2023-04-24T13:10:44;2.80;;;1.70;;
48199;SDS011;33990;44.602;10.976;2023-04-24T13:13:12;4.55;;;2.00;;
48199;SDS011;33990;44.602;10.976;2023-04-24T13:15:40;4.35;;;1.95;;
48199;SDS011;33990;44.602;10.976;2023-04-24T13:18:07;3.05;;;1.63;;
48199;SDS011;33990;44.602;10.976;2023-04-24T13:20:34;3.33;;;1.67;;
48199;SDS011;33990;44.602;10.976;2023-04-24T13:23:02;4.07;;;1.73;;
48199;SDS011;33990;44.602;10.976;2023-04-24T13:25:34;4.20;;;1.70;;
48199;SDS011;33990;44.602;10.976;2023-04-24T13:28:02;3.40;;;1.40;;
48199;SDS011;33990;44.602;10.976;2023-04-24T13:30:30;4.50;;;1.90;;
48199;SDS011;33990;44.602;10.976;2023-04-24T13:32:58;4.07;;;1.88;;
48199;SDS011;33990;44.602;10.976;2023-04-24T13:35:25;2.35;;;1.50;;
48199;SDS011;33990;44.602;10.976;2023-04-24T13:37:53;5.57;;;1.70;;
48199;SDS011;33990;44.602;10.976;2023-04-24T13:40:20;3.40;;;1.55;;
48199;SDS011;33990;44.602;10.976;2023-04-24T13:42:47;4.25;;;2.17;;
48199;SDS011;33990;44.602;10.976;2023-04-24T13:45:15;5.60;;;1.95;;
48199;SDS011;33990;44.602;10.976;2023-04-24T13:47:51;3.08;;;1.55;;
48199;SDS011;33990;44.602;10.976;2023-04-24T13:50:21;4.55;;;1.73;;
48199;SDS011;33990;44.602;10.976;2023-04-24T13:52:48;4.53;;;2.05;;
48199;SDS011;33990;44.602;10.976;2023-04-24T13:55:16;3.72;;;1.60;;
48199;SDS011;33990;44.602;10.976;2023-04-24T13:57:43;5.25;;;1.85;;
48199;SDS011;33990;44.602;10.976;2023-04-24T14:00:11;4.47;;;1.75;;
48199;SDS011;33990;44.602;10.976;2023-04-24T14:02:38;2.70;;;1.42;;
48199;SDS011;33990;44.602;10.976;2023-04-24T14:05:06;4.68;;;2.00;;
48199;SDS011;33990;44.602;10.976;2023-04-24T14:07:34;3.13;;;1.80;;
48199;SDS011;33990;44.602;10.976;2023-04-24T14:10:01;2.35;;;1.35;;
48199;SDS011;33990;44.602;10.976;2023-04-24T14:12:28;2.67;;;1.55;;
48199;SDS011;33990;44.602;10.976;2023-04-24T14:14:56;5.68;;;2.20;;
48199;SDS011;33990;44.602;10.976;2023-04-24T14:17:23;2.70;;;1.67;;
48199;SDS011;33990;44.602;10.976;2023-04-24T14:19:51;4.15;;;1.52;;
48199;SDS011;33990;44.602;10.976;2023-04-24T14:22:18;2.60;;;1.60;;
48199;SDS011;33990;44.602;10.976;2023-04-24T14:24:47;3.90;;;1.80;;
48199;SDS011;33990;44.602;10.976;2023-04-24T14:27:14;3.63;;;1.80;;
48199;SDS011;33990;44.602;10.976;2023-04-24T14:29:42;2.80;;;1.58;;
48199;SDS011;33990;44.602;10.976;2023-04-24T14:32:09;3.00;;;1.70;;
48199;SDS011;33990;44.602;10.976;2023-04-24T14:34:36;2.70;;;1.83;;
48199;SDS011;33990;44.602;10.976;2023-04-24T14:37:04;3.20;;;2.03;;
48199;SDS011;33990;44.602;10.976;2023-04-24T14:39:31;3.50;;;1.98;;
48199;SDS011;33990;44.602;10.976;2023-04-24T14:41:58;3.30;;;2.05;;
48199;SDS011;33990;44.602;10.976;2023-04-24T14:44:26;2.67;;;1.52;;
48199;SDS011;33990;44.602;10.976;2023-04-24T14:46:53;2.30;;;1.45;;
48199;SDS011;33990;44.602;10.976;2023-04-24T14:49:20;4.93;;;1.63;;
48199;SDS011;33990;44.602;10.976;2023-04-24T14:51:48;2.30;;;1.60;;